sensor_id;sensor_type;location;lat;lon;timestamp;P1;durP1;ratioP1;P2;durP2;ratioP2
63555;SDS011;49700;48.072;7.800;2023-05-10T00:01:00;2.70;;;1.40;;
63555;SDS011;49700;48.072;7.800;2023-05-10T00:03:26;1.30;;;1.20;;
63555;SDS011;49700;48.072;7.800;2023-05-10T00:05:51;3.23;;;1.10;;
63555;SDS011;49700;48.072;7.800;2023-05-10T00:08:17;1.30;;;1.20;;
63555;SDS011;49700;48.072;7.800;2023-05-10T00:10:42;5.20;;;1.30;;
63555;SDS011;49700;48.072;7.800;2023-05-10T00:13:08;1.90;;;1.20;;
63555;SDS011;49700;48.072;7.800;2023-05-10T00:15:33;1.63;;;1.17;;
63555;SDS011;49700;48.072;7.800;2023-05-10T00:17:59;2.20;;;1.30;;
63555;SDS011;49700;48.072;7.800;2023-05-10T00:20:25;1.00;;;0.90;;
63555;SDS011;49700;48.072;7.800;2023-05-10T00:22:50;1.60;;;1.00;;
63555;SDS011;49700;48.072;7.800;2023-05-10T00:25:16;1.20;;;1.10;;
63555;SDS011;49700;48.072;7.800;2023-05-10T00:27:41;1.20;;;1.10;;
63555;SDS011;49700;48.072;7.800;2023-05-10T00:30:07;1.67;;;1.30;;
63555;SDS011;49700;48.072;7.800;2023-05-10T00:32:34;1.63;;;1.30;;
63555;SDS011;49700;48.072;7.800;2023-05-10T00:34:59;1.90;;;1.60;;
63555;SDS011;49700;48.072;7.800;2023-05-10T00:37:25;1.10;;;1.00;;
63555;SDS011;49700;48.072;7.800;2023-05-10T00:39:51;1.83;;;1.30;;
63555;SDS011;49700;48.072;7.800;2023-05-10T00:42:16;1.80;;;1.40;;
63555;SDS011;49700;48.072;7.800;2023-05-10T00:44:42;1.10;;;1.00;;
63555;SDS011;49700;48.072;7.800;2023-05-10T00:47:08;1.23;;;1.13;;
63555;SDS011;49700;48.072;7.800;2023-05-10T00:49:34;1.95;;;1.20;;
63555;SDS011;49700;48.072;7.800;2023-05-10T00:52:00;1.40;;;1.20;;
63555;SDS011;49700;48.072;7.800;2023-05-10T00:54:27;2.08;;;1.00;;
63555;SDS011;49700;48.072;7.800;2023-05-10T00:56:52;3.13;;;1.17;;
63555;SDS011;49700;48.072;7.800;2023-05-10T00:59:18;3.90;;;1.20;;
63555;SDS011;49700;48.072;7.800;2023-05-10T01:01:44;1.20;;;1.10;;
63555;SDS011;49700;48.072;7.800;2023-05-10T01:04:11;1.45;;;1.10;;
63555;SDS011;49700;48.072;7.800;2023-05-10T01:06:38;2.08;;;1.10;;
63555;SDS011;49700;48.072;7.800;2023-05-10T01:09:04;2.17;;;1.50;;
63555;SDS011;49700;48.072;7.800;2023-05-10T01:11:31;4.13;;;1.15;;
63555;SDS011;49700;48.072;7.800;2023-05-10T01:13:58;2.40;;;1.70;;
63555;SDS011;49700;48.072;7.800;2023-05-10T01:16:24;1.27;;;1.00;;
63555;SDS011;49700;48.072;7.800;2023-05-10T01:18:51;4.03;;;1.10;;
63555;SDS011;49700;48.072;7.800;2023-05-10T01:37:58;1.42;;;0.90;;
63555;SDS011;49700;48.072;7.800;2023-05-10T01:40:35;1.13;;;1.00;;
63555;SDS011;49700;48.072;7.800;2023-05-10T01:43:06;3.35;;;1.40;;
63555;SDS011;49700;48.072;7.800;2023-05-10T01:45:41;1.30;;;1.20;;
63555;SDS011;49700;48.072;7.800;2023-05-10T01:48:15;1.52;;;1.20;;
63555;SDS011;49700;48.072;7.800;2023-05-10T01:50:43;1.20;;;1.10;;
63555;SDS011;49700;48.072;7.800;2023-05-10T01:53:12;1.10;;;1.00;;
63555;SDS011;49700;48.072;7.800;2023-05-10T01:55:42;2.38;;;2.17;;
63555;SDS011;49700;48.072;7.800;2023-05-10T01:58:13;1.35;;;1.25;;
63555;SDS011;49700;48.072;7.800;2023-05-10T02:00:44;1.40;;;1.30;;
63555;SDS011;49700;48.072;7.800;2023-05-10T02:03:11;1.20;;;1.10;;
63555;SDS011;49700;48.072;7.800;2023-05-10T02:05:37;2.80;;;1.40;;
63555;SDS011;49700;48.072;7.800;2023-05-10T02:08:05;1.83;;;1.45;;
63555;SDS011;49700;48.072;7.800;2023-05-10T02:10:33;2.00;;;1.52;;
63555;SDS011;49700;48.072;7.800;2023-05-10T02:13:00;1.40;;;1.30;;
63555;SDS011;49700;48.072;7.800;2023-05-10T02:15:27;3.15;;;1.65;;
63555;SDS011;49700;48.072;7.800;2023-05-10T02:17:56;1.20;;;1.10;;
63555;SDS011;49700;48.072;7.800;2023-05-10T02:20:23;1.10;;;1.00;;
63555;SDS011;49700;48.072;7.800;2023-05-10T02:22:51;1.10;;;1.00;;
63555;SDS011;49700;48.072;7.800;2023-05-10T02:25:19;1.17;;;1.08;;
63555;SDS011;49700;48.072;7.800;2023-05-10T02:27:47;1.58;;;1.25;;
63555;SDS011;49700;48.072;7.800;2023-05-10T02:30:13;1.85;;;1.27;;
63555;SDS011;49700;48.072;7.800;2023-05-10T02:32:41;2.20;;;1.20;;
63555;SDS011;49700;48.072;7.800;2023-05-10T02:35:08;1.50;;;1.20;;
63555;SDS011;49700;48.072;7.800;2023-05-10T02:37:35;3.47;;;1.20;;
63555;SDS011;49700;48.072;7.800;2023-05-10T02:40:03;1.38;;;1.27;;
63555;SDS011;49700;48.072;7.800;2023-05-10T02:42:31;1.50;;;1.40;;
63555;SDS011;49700;48.072;7.800;2023-05-10T02:45:00;1.20;;;1.10;;
63555;SDS011;49700;48.072;7.800;2023-05-10T02:47:28;2.00;;;1.77;;
63555;SDS011;49700;48.072;7.800;2023-05-10T02:49:54;2.03;;;1.50;;
63555;SDS011;49700;48.072;7.800;2023-05-10T02:52:25;1.55;;;1.45;;
63555;SDS011;49700;48.072;7.800;2023-05-10T02:54:54;1.80;;;1.58;;
63555;SDS011;49700;48.072;7.800;2023-05-10T02:57:25;1.50;;;1.40;;
63555;SDS011;49700;48.072;7.800;2023-05-10T02:59:57;3.00;;;1.70;;
63555;SDS011;49700;48.072;7.800;2023-05-10T03:02:22;1.30;;;1.20;;
63555;SDS011;49700;48.072;7.800;2023-05-10T03:04:48;2.33;;;1.90;;
63555;SDS011;49700;48.072;7.800;2023-05-10T03:07:13;1.63;;;1.30;;
63555;SDS011;49700;48.072;7.800;2023-05-10T03:09:39;2.53;;;1.23;;
63555;SDS011;49700;48.072;7.800;2023-05-10T03:14:36;2.50;;;2.30;;
63555;SDS011;49700;48.072;7.800;2023-05-10T03:22:27;1.70;;;1.60;;
63555;SDS011;49700;48.072;7.800;2023-05-10T03:24:57;1.35;;;1.25;;
63555;SDS011;49700;48.072;7.800;2023-05-10T03:27:26;2.38;;;1.50;;
63555;SDS011;49700;48.072;7.800;2023-05-10T03:29:54;1.55;;;1.45;;
63555;SDS011;49700;48.072;7.800;2023-05-10T03:32:21;1.77;;;1.50;;
63555;SDS011;49700;48.072;7.800;2023-05-10T03:34:47;2.40;;;1.60;;
63555;SDS011;49700;48.072;7.800;2023-05-10T03:37:12;9.70;;;1.70;;
63555;SDS011;49700;48.072;7.800;2023-05-10T03:39:37;1.23;;;1.10;;
63555;SDS011;49700;48.072;7.800;2023-05-10T03:42:05;2.33;;;1.80;;
63555;SDS011;49700;48.072;7.800;2023-05-10T03:44:31;1.53;;;1.43;;
63555;SDS011;49700;48.072;7.800;2023-05-10T03:46:58;2.65;;;1.63;;
63555;SDS011;49700;48.072;7.800;2023-05-10T03:49:24;4.45;;;2.20;;
63555;SDS011;49700;48.072;7.800;2023-05-10T03:51:49;3.33;;;2.70;;
63555;SDS011;49700;48.072;7.800;2023-05-10T03:54:15;3.93;;;2.80;;
63555;SDS011;49700;48.072;7.800;2023-05-10T03:56:40;3.23;;;2.00;;
63555;SDS011;49700;48.072;7.800;2023-05-10T03:59:05;2.43;;;2.23;;
63555;SDS011;49700;48.072;7.800;2023-05-10T04:01:33;1.50;;;1.40;;
63555;SDS011;49700;48.072;7.800;2023-05-10T04:03:59;2.85;;;1.90;;
63555;SDS011;49700;48.072;7.800;2023-05-10T04:06:24;2.97;;;1.60;;
63555;SDS011;49700;48.072;7.800;2023-05-10T04:08:49;2.43;;;2.20;;
63555;SDS011;49700;48.072;7.800;2023-05-10T04:11:15;4.80;;;1.97;;
63555;SDS011;49700;48.072;7.800;2023-05-10T04:13:40;1.67;;;1.57;;
63555;SDS011;49700;48.072;7.800;2023-05-10T04:16:06;1.47;;;1.37;;
63555;SDS011;49700;48.072;7.800;2023-05-10T04:18:31;2.20;;;1.70;;
63555;SDS011;49700;48.072;7.800;2023-05-10T04:20:57;1.40;;;1.30;;
63555;SDS011;49700;48.072;7.800;2023-05-10T04:23:22;1.67;;;1.57;;
63555;SDS011;49700;48.072;7.800;2023-05-10T04:25:48;1.73;;;1.63;;
63555;SDS011;49700;48.072;7.800;2023-05-10T04:28:13;5.10;;;3.40;;
63555;SDS011;49700;48.072;7.800;2023-05-10T04:30:39;4.70;;;3.23;;
63555;SDS011;49700;48.072;7.800;2023-05-10T04:33:05;1.95;;;1.83;;
63555;SDS011;49700;48.072;7.800;2023-05-10T04:35:30;3.70;;;2.33;;
63555;SDS011;49700;48.072;7.800;2023-05-10T04:37:56;6.50;;;3.57;;
63555;SDS011;49700;48.072;7.800;2023-05-10T04:40:21;2.27;;;2.00;;
63555;SDS011;49700;48.072;7.800;2023-05-10T04:42:47;2.13;;;1.93;;
63555;SDS011;49700;48.072;7.800;2023-05-10T04:45:12;2.17;;;1.97;;
63555;SDS011;49700;48.072;7.800;2023-05-10T04:47:39;1.88;;;1.77;;
63555;SDS011;49700;48.072;7.800;2023-05-10T04:50:05;5.27;;;2.77;;
63555;SDS011;49700;48.072;7.800;2023-05-10T04:52:31;4.10;;;2.20;;
63555;SDS011;49700;48.072;7.800;2023-05-10T04:54:56;6.70;;;2.00;;
63555;SDS011;49700;48.072;7.800;2023-05-10T04:57:22;2.50;;;1.60;;
63555;SDS011;49700;48.072;7.800;2023-05-10T04:59:47;1.40;;;1.30;;
63555;SDS011;49700;48.072;7.800;2023-05-10T05:02:13;1.80;;;1.70;;
63555;SDS011;49700;48.072;7.800;2023-05-10T05:04:38;2.70;;;1.77;;
63555;SDS011;49700;48.072;7.800;2023-05-10T05:07:03;1.63;;;1.53;;
63555;SDS011;49700;48.072;7.800;2023-05-10T05:09:29;2.07;;;1.77;;
63555;SDS011;49700;48.072;7.800;2023-05-10T05:11:57;1.90;;;1.70;;
63555;SDS011;49700;48.072;7.800;2023-05-10T05:14:22;1.97;;;1.57;;
63555;SDS011;49700;48.072;7.800;2023-05-10T05:16:50;2.13;;;1.92;;
63555;SDS011;49700;48.072;7.800;2023-05-10T05:19:16;1.50;;;1.40;;
63555;SDS011;49700;48.072;7.800;2023-05-10T05:21:41;1.63;;;1.53;;
63555;SDS011;49700;48.072;7.800;2023-05-10T05:24:07;2.07;;;1.50;;
63555;SDS011;49700;48.072;7.800;2023-05-10T05:26:32;2.03;;;1.83;;
63555;SDS011;49700;48.072;7.800;2023-05-10T05:28:58;1.87;;;1.70;;
63555;SDS011;49700;48.072;7.800;2023-05-10T05:31:23;2.83;;;1.83;;
63555;SDS011;49700;48.072;7.800;2023-05-10T05:33:49;2.30;;;2.07;;
63555;SDS011;49700;48.072;7.800;2023-05-10T05:36:14;2.07;;;1.80;;
63555;SDS011;49700;48.072;7.800;2023-05-10T05:38:39;2.00;;;1.90;;
63555;SDS011;49700;48.072;7.800;2023-05-10T05:41:05;2.23;;;1.80;;
63555;SDS011;49700;48.072;7.800;2023-05-10T05:43:30;1.93;;;1.43;;
63555;SDS011;49700;48.072;7.800;2023-05-10T05:45:56;2.00;;;1.80;;
63555;SDS011;49700;48.072;7.800;2023-05-10T05:48:22;2.25;;;1.75;;
63555;SDS011;49700;48.072;7.800;2023-05-10T05:50:48;2.87;;;1.73;;
63555;SDS011;49700;48.072;7.800;2023-05-10T05:53:14;1.93;;;1.83;;
63555;SDS011;49700;48.072;7.800;2023-05-10T05:55:39;2.30;;;1.83;;
63555;SDS011;49700;48.072;7.800;2023-05-10T05:58:05;2.67;;;1.90;;
63555;SDS011;49700;48.072;7.800;2023-05-10T06:00:30;2.00;;;1.77;;
63555;SDS011;49700;48.072;7.800;2023-05-10T06:02:56;2.23;;;1.70;;
63555;SDS011;49700;48.072;7.800;2023-05-10T06:05:22;2.33;;;2.13;;
63555;SDS011;49700;48.072;7.800;2023-05-10T06:07:47;3.37;;;2.30;;
63555;SDS011;49700;48.072;7.800;2023-05-10T06:10:12;1.93;;;1.80;;
63555;SDS011;49700;48.072;7.800;2023-05-10T06:12:38;2.17;;;1.70;;
63555;SDS011;49700;48.072;7.800;2023-05-10T06:15:03;3.30;;;2.13;;
63555;SDS011;49700;48.072;7.800;2023-05-10T06:17:29;2.53;;;2.17;;
63555;SDS011;49700;48.072;7.800;2023-05-10T06:19:55;2.73;;;2.00;;
63555;SDS011;49700;48.072;7.800;2023-05-10T06:22:21;2.30;;;1.87;;
63555;SDS011;49700;48.072;7.800;2023-05-10T06:24:47;1.73;;;1.60;;
63555;SDS011;49700;48.072;7.800;2023-05-10T06:27:13;2.20;;;1.65;;
63555;SDS011;49700;48.072;7.800;2023-05-10T06:29:39;2.60;;;2.17;;
63555;SDS011;49700;48.072;7.800;2023-05-10T06:32:04;1.80;;;1.60;;
63555;SDS011;49700;48.072;7.800;2023-05-10T06:34:30;2.10;;;1.87;;
63555;SDS011;49700;48.072;7.800;2023-05-10T06:36:55;2.37;;;1.80;;
63555;SDS011;49700;48.072;7.800;2023-05-10T06:39:20;2.20;;;1.57;;
63555;SDS011;49700;48.072;7.800;2023-05-10T06:41:46;1.70;;;1.53;;
63555;SDS011;49700;48.072;7.800;2023-05-10T06:44:11;6.57;;;2.40;;
63555;SDS011;49700;48.072;7.800;2023-05-10T06:46:37;2.88;;;2.00;;
63555;SDS011;49700;48.072;7.800;2023-05-10T06:49:03;4.50;;;2.40;;
63555;SDS011;49700;48.072;7.800;2023-05-10T06:51:28;2.50;;;1.83;;
63555;SDS011;49700;48.072;7.800;2023-05-10T06:53:53;2.43;;;1.87;;
63555;SDS011;49700;48.072;7.800;2023-05-10T06:56:19;5.80;;;2.03;;
63555;SDS011;49700;48.072;7.800;2023-05-10T06:58:46;2.38;;;2.17;;
63555;SDS011;49700;48.072;7.800;2023-05-10T07:01:12;2.17;;;1.98;;
63555;SDS011;49700;48.072;7.800;2023-05-10T07:03:37;3.23;;;2.10;;
63555;SDS011;49700;48.072;7.800;2023-05-10T07:06:03;3.42;;;2.55;;
63555;SDS011;49700;48.072;7.800;2023-05-10T07:08:30;2.30;;;2.17;;
63555;SDS011;49700;48.072;7.800;2023-05-10T07:11:00;2.42;;;2.17;;
63555;SDS011;49700;48.072;7.800;2023-05-10T07:13:26;4.68;;;2.58;;
63555;SDS011;49700;48.072;7.800;2023-05-10T07:15:51;6.30;;;3.63;;
63555;SDS011;49700;48.072;7.800;2023-05-10T07:18:17;3.63;;;2.57;;
63555;SDS011;49700;48.072;7.800;2023-05-10T07:20:42;1.57;;;1.47;;
63555;SDS011;49700;48.072;7.800;2023-05-10T07:23:07;2.50;;;1.93;;
63555;SDS011;49700;48.072;7.800;2023-05-10T07:25:33;1.93;;;1.77;;
63555;SDS011;49700;48.072;7.800;2023-05-10T07:27:58;2.13;;;1.93;;
63555;SDS011;49700;48.072;7.800;2023-05-10T07:30:24;11.00;;;3.20;;
63555;SDS011;49700;48.072;7.800;2023-05-10T07:32:49;4.57;;;2.63;;
63555;SDS011;49700;48.072;7.800;2023-05-10T07:35:14;5.30;;;2.60;;
63555;SDS011;49700;48.072;7.800;2023-05-10T07:37:40;4.37;;;2.33;;
63555;SDS011;49700;48.072;7.800;2023-05-10T07:40:05;6.73;;;2.30;;
63555;SDS011;49700;48.072;7.800;2023-05-10T07:42:31;1.75;;;1.65;;
63555;SDS011;49700;48.072;7.800;2023-05-10T07:44:57;2.40;;;2.20;;
63555;SDS011;49700;48.072;7.800;2023-05-10T07:47:22;2.03;;;1.50;;
63555;SDS011;49700;48.072;7.800;2023-05-10T07:49:48;3.03;;;1.77;;
63555;SDS011;49700;48.072;7.800;2023-05-10T07:52:13;3.63;;;2.80;;
63555;SDS011;49700;48.072;7.800;2023-05-10T07:54:39;2.37;;;1.70;;
63555;SDS011;49700;48.072;7.800;2023-05-10T07:57:04;5.63;;;1.90;;
63555;SDS011;49700;48.072;7.800;2023-05-10T07:59:30;2.60;;;1.80;;
63555;SDS011;49700;48.072;7.800;2023-05-10T08:01:55;4.20;;;1.83;;
63555;SDS011;49700;48.072;7.800;2023-05-10T08:04:21;4.03;;;2.10;;
63555;SDS011;49700;48.072;7.800;2023-05-10T08:06:47;3.13;;;1.80;;
63555;SDS011;49700;48.072;7.800;2023-05-10T08:09:12;3.63;;;2.70;;
63555;SDS011;49700;48.072;7.800;2023-05-10T08:11:38;2.37;;;1.60;;
63555;SDS011;49700;48.072;7.800;2023-05-10T08:14:03;2.67;;;2.47;;
63555;SDS011;49700;48.072;7.800;2023-05-10T08:16:29;3.03;;;2.00;;
63555;SDS011;49700;48.072;7.800;2023-05-10T08:18:54;4.33;;;2.63;;
63555;SDS011;49700;48.072;7.800;2023-05-10T08:21:20;4.20;;;1.83;;
63555;SDS011;49700;48.072;7.800;2023-05-10T08:23:45;2.50;;;1.63;;
63555;SDS011;49700;48.072;7.800;2023-05-10T08:26:11;1.53;;;1.43;;
63555;SDS011;49700;48.072;7.800;2023-05-10T08:28:36;1.57;;;1.47;;
63555;SDS011;49700;48.072;7.800;2023-05-10T08:31:02;4.30;;;1.67;;
63555;SDS011;49700;48.072;7.800;2023-05-10T08:33:27;1.73;;;1.63;;
63555;SDS011;49700;48.072;7.800;2023-05-10T08:35:53;5.20;;;1.80;;
63555;SDS011;49700;48.072;7.800;2023-05-10T08:38:18;2.10;;;1.43;;
63555;SDS011;49700;48.072;7.800;2023-05-10T08:40:44;1.60;;;1.50;;
63555;SDS011;49700;48.072;7.800;2023-05-10T08:43:11;2.90;;;1.87;;
63555;SDS011;49700;48.072;7.800;2023-05-10T08:45:43;1.73;;;1.60;;
63555;SDS011;49700;48.072;7.800;2023-05-10T08:48:13;2.88;;;1.67;;
63555;SDS011;49700;48.072;7.800;2023-05-10T08:50:40;2.10;;;1.90;;
63555;SDS011;49700;48.072;7.800;2023-05-10T08:53:09;2.85;;;1.95;;
63555;SDS011;49700;48.072;7.800;2023-05-10T08:55:36;4.57;;;1.75;;
63555;SDS011;49700;48.072;7.800;2023-05-10T08:58:04;2.72;;;1.33;;
63555;SDS011;49700;48.072;7.800;2023-05-10T09:00:30;4.03;;;1.60;;
63555;SDS011;49700;48.072;7.800;2023-05-10T09:02:59;3.27;;;1.13;;
63555;SDS011;49700;48.072;7.800;2023-05-10T09:05:25;2.80;;;1.60;;
63555;SDS011;49700;48.072;7.800;2023-05-10T09:07:51;2.70;;;1.60;;
63555;SDS011;49700;48.072;7.800;2023-05-10T09:10:16;1.60;;;1.03;;
63555;SDS011;49700;48.072;7.800;2023-05-10T09:12:42;1.77;;;1.27;;
63555;SDS011;49700;48.072;7.800;2023-05-10T09:15:09;1.75;;;1.30;;
63555;SDS011;49700;48.072;7.800;2023-05-10T09:17:34;5.97;;;1.33;;
63555;SDS011;49700;48.072;7.800;2023-05-10T09:20:02;3.17;;;1.30;;
63555;SDS011;49700;48.072;7.800;2023-05-10T09:22:32;3.72;;;1.33;;
63555;SDS011;49700;48.072;7.800;2023-05-10T09:25:05;3.33;;;1.63;;
63555;SDS011;49700;48.072;7.800;2023-05-10T09:27:38;1.85;;;1.48;;
63555;SDS011;49700;48.072;7.800;2023-05-10T09:30:05;6.03;;;1.73;;
63555;SDS011;49700;48.072;7.800;2023-05-10T09:32:38;2.20;;;1.50;;
63555;SDS011;49700;48.072;7.800;2023-05-10T09:35:08;1.85;;;1.30;;
63555;SDS011;49700;48.072;7.800;2023-05-10T09:37:41;1.40;;;1.30;;
63555;SDS011;49700;48.072;7.800;2023-05-10T09:40:12;2.03;;;1.50;;
63555;SDS011;49700;48.072;7.800;2023-05-10T09:42:39;11.07;;;1.63;;
63555;SDS011;49700;48.072;7.800;2023-05-10T09:45:07;3.92;;;1.33;;
63555;SDS011;49700;48.072;7.800;2023-05-10T09:47:33;5.23;;;1.40;;
63555;SDS011;49700;48.072;7.800;2023-05-10T09:50:00;1.70;;;1.60;;
63555;SDS011;49700;48.072;7.800;2023-05-10T09:52:30;4.13;;;1.15;;
63555;SDS011;49700;48.072;7.800;2023-05-10T09:54:56;6.07;;;1.80;;
63555;SDS011;49700;48.072;7.800;2023-05-10T09:57:22;1.53;;;1.27;;
63555;SDS011;49700;48.072;7.800;2023-05-10T09:59:49;2.35;;;1.48;;
63555;SDS011;49700;48.072;7.800;2023-05-10T10:02:15;2.10;;;1.30;;
63555;SDS011;49700;48.072;7.800;2023-05-10T10:04:41;1.58;;;1.13;;
63555;SDS011;49700;48.072;7.800;2023-05-10T10:07:07;2.75;;;1.60;;
63555;SDS011;49700;48.072;7.800;2023-05-10T10:09:33;2.13;;;1.33;;
63555;SDS011;49700;48.072;7.800;2023-05-10T10:12:00;4.70;;;1.50;;
63555;SDS011;49700;48.072;7.800;2023-05-10T10:14:27;1.60;;;1.50;;
63555;SDS011;49700;48.072;7.800;2023-05-10T10:16:53;1.90;;;1.10;;
63555;SDS011;49700;48.072;7.800;2023-05-10T10:19:19;1.70;;;1.23;;
63555;SDS011;49700;48.072;7.800;2023-05-10T10:21:46;2.17;;;1.30;;
63555;SDS011;49700;48.072;7.800;2023-05-10T10:24:14;2.97;;;1.38;;
63555;SDS011;49700;48.072;7.800;2023-05-10T10:26:40;2.07;;;1.40;;
63555;SDS011;49700;48.072;7.800;2023-05-10T10:29:23;1.77;;;1.15;;
63555;SDS011;49700;48.072;7.800;2023-05-10T10:32:10;1.80;;;1.50;;
63555;SDS011;49700;48.072;7.800;2023-05-10T10:34:44;2.55;;;1.50;;
63555;SDS011;49700;48.072;7.800;2023-05-10T10:37:10;1.50;;;1.33;;
63555;SDS011;49700;48.072;7.800;2023-05-10T10:39:35;3.63;;;1.60;;
63555;SDS011;49700;48.072;7.800;2023-05-10T10:42:01;1.47;;;1.30;;
63555;SDS011;49700;48.072;7.800;2023-05-10T10:47:00;2.30;;;1.20;;
63555;SDS011;49700;48.072;7.800;2023-05-10T10:49:28;2.17;;;1.05;;
63555;SDS011;49700;48.072;7.800;2023-05-10T10:54:52;1.95;;;1.60;;
63555;SDS011;49700;48.072;7.800;2023-05-10T10:57:22;4.43;;;1.63;;
63555;SDS011;49700;48.072;7.800;2023-05-10T10:59:48;2.13;;;1.20;;
63555;SDS011;49700;48.072;7.800;2023-05-10T11:02:32;2.60;;;1.40;;
63555;SDS011;49700;48.072;7.800;2023-05-10T11:04:58;1.63;;;1.17;;
63555;SDS011;49700;48.072;7.800;2023-05-10T11:07:24;1.70;;;0.90;;
63555;SDS011;49700;48.072;7.800;2023-05-10T11:09:49;1.10;;;1.00;;
63555;SDS011;49700;48.072;7.800;2023-05-10T11:12:15;2.27;;;0.80;;
63555;SDS011;49700;48.072;7.800;2023-05-10T11:14:40;1.33;;;0.80;;
63555;SDS011;49700;48.072;7.800;2023-05-10T11:17:22;1.73;;;1.50;;
63555;SDS011;49700;48.072;7.800;2023-05-10T11:20:08;1.77;;;1.10;;
63555;SDS011;49700;48.072;7.800;2023-05-10T11:22:53;1.73;;;1.20;;
63555;SDS011;49700;48.072;7.800;2023-05-10T11:25:19;1.87;;;1.20;;
63555;SDS011;49700;48.072;7.800;2023-05-10T11:27:46;1.00;;;0.90;;
63555;SDS011;49700;48.072;7.800;2023-05-10T11:30:13;1.87;;;1.20;;
63555;SDS011;49700;48.072;7.800;2023-05-10T11:32:40;4.43;;;1.20;;
63555;SDS011;49700;48.072;7.800;2023-05-10T11:35:09;1.30;;;1.00;;
63555;SDS011;49700;48.072;7.800;2023-05-10T11:37:37;2.00;;;1.37;;
63555;SDS011;49700;48.072;7.800;2023-05-10T11:40:07;1.30;;;1.00;;
63555;SDS011;49700;48.072;7.800;2023-05-10T11:42:36;3.80;;;1.30;;
63555;SDS011;49700;48.072;7.800;2023-05-10T11:45:02;3.25;;;1.35;;
63555;SDS011;49700;48.072;7.800;2023-05-10T11:47:28;1.27;;;1.17;;
63555;SDS011;49700;48.072;7.800;2023-05-10T11:49:53;0.97;;;0.80;;
63555;SDS011;49700;48.072;7.800;2023-05-10T11:52:19;4.20;;;1.53;;
63555;SDS011;49700;48.072;7.800;2023-05-10T11:54:51;2.90;;;1.30;;
63555;SDS011;49700;48.072;7.800;2023-05-10T11:57:21;1.43;;;1.07;;
63555;SDS011;49700;48.072;7.800;2023-05-10T11:59:54;2.80;;;1.27;;
63555;SDS011;49700;48.072;7.800;2023-05-10T12:02:21;1.63;;;1.00;;
63555;SDS011;49700;48.072;7.800;2023-05-10T12:04:46;1.30;;;1.20;;
63555;SDS011;49700;48.072;7.800;2023-05-10T12:07:12;1.67;;;1.00;;
63555;SDS011;49700;48.072;7.800;2023-05-10T12:09:42;1.20;;;1.03;;
63555;SDS011;49700;48.072;7.800;2023-05-10T12:12:26;4.33;;;1.23;;
63555;SDS011;49700;48.072;7.800;2023-05-10T12:14:52;3.20;;;1.43;;
63555;SDS011;49700;48.072;7.800;2023-05-10T12:17:17;2.33;;;1.40;;
63555;SDS011;49700;48.072;7.800;2023-05-10T12:19:42;3.10;;;1.37;;
63555;SDS011;49700;48.072;7.800;2023-05-10T12:22:08;1.80;;;0.90;;
63555;SDS011;49700;48.072;7.800;2023-05-10T12:24:35;2.10;;;1.10;;
63555;SDS011;49700;48.072;7.800;2023-05-10T12:27:04;1.87;;;1.27;;
63555;SDS011;49700;48.072;7.800;2023-05-10T12:29:30;1.70;;;0.93;;
63555;SDS011;49700;48.072;7.800;2023-05-10T12:31:57;1.57;;;0.90;;
63555;SDS011;49700;48.072;7.800;2023-05-10T12:36:51;0.90;;;0.80;;
63555;SDS011;49700;48.072;7.800;2023-05-10T12:39:17;2.20;;;0.90;;
63555;SDS011;49700;48.072;7.800;2023-05-10T12:41:43;1.77;;;1.00;;
63555;SDS011;49700;48.072;7.800;2023-05-10T12:44:08;1.27;;;1.10;;
63555;SDS011;49700;48.072;7.800;2023-05-10T12:46:33;1.43;;;0.90;;
63555;SDS011;49700;48.072;7.800;2023-05-10T12:48:59;2.70;;;1.33;;
63555;SDS011;49700;48.072;7.800;2023-05-10T12:51:24;2.33;;;1.00;;
63555;SDS011;49700;48.072;7.800;2023-05-10T12:53:50;1.00;;;0.90;;
63555;SDS011;49700;48.072;7.800;2023-05-10T12:56:15;0.90;;;0.70;;
63555;SDS011;49700;48.072;7.800;2023-05-10T12:58:40;0.80;;;0.80;;
63555;SDS011;49700;48.072;7.800;2023-05-10T13:01:06;1.53;;;0.73;;
63555;SDS011;49700;48.072;7.800;2023-05-10T13:03:31;0.93;;;0.80;;
63555;SDS011;49700;48.072;7.800;2023-05-10T13:05:57;2.00;;;0.90;;
63555;SDS011;49700;48.072;7.800;2023-05-10T13:08:22;4.17;;;0.73;;
63555;SDS011;49700;48.072;7.800;2023-05-10T13:10:48;0.70;;;0.70;;
63555;SDS011;49700;48.072;7.800;2023-05-10T13:13:13;3.37;;;0.70;;
63555;SDS011;49700;48.072;7.800;2023-05-10T13:15:39;0.90;;;0.70;;
63555;SDS011;49700;48.072;7.800;2023-05-10T13:18:04;2.23;;;1.10;;
63555;SDS011;49700;48.072;7.800;2023-05-10T13:20:30;1.67;;;0.77;;
63555;SDS011;49700;48.072;7.800;2023-05-10T13:22:55;1.53;;;1.30;;
63555;SDS011;49700;48.072;7.800;2023-05-10T13:25:21;2.90;;;1.40;;
63555;SDS011;49700;48.072;7.800;2023-05-10T13:27:46;1.73;;;0.80;;
63555;SDS011;49700;48.072;7.800;2023-05-10T13:30:11;2.27;;;0.80;;
63555;SDS011;49700;48.072;7.800;2023-05-10T13:32:37;1.37;;;0.80;;
63555;SDS011;49700;48.072;7.800;2023-05-10T13:35:03;1.70;;;0.80;;
63555;SDS011;49700;48.072;7.800;2023-05-10T13:37:30;1.27;;;0.70;;
63555;SDS011;49700;48.072;7.800;2023-05-10T13:39:56;1.30;;;0.60;;
63555;SDS011;49700;48.072;7.800;2023-05-10T13:42:21;1.33;;;0.80;;
63555;SDS011;49700;48.072;7.800;2023-05-10T13:44:48;1.40;;;0.80;;
63555;SDS011;49700;48.072;7.800;2023-05-10T13:47:13;0.90;;;0.70;;
63555;SDS011;49700;48.072;7.800;2023-05-10T13:49:38;0.90;;;0.80;;
63555;SDS011;49700;48.072;7.800;2023-05-10T13:52:04;0.70;;;0.70;;
63555;SDS011;49700;48.072;7.800;2023-05-10T13:54:35;1.47;;;0.90;;
63555;SDS011;49700;48.072;7.800;2023-05-10T13:57:03;1.20;;;1.10;;
63555;SDS011;49700;48.072;7.800;2023-05-10T13:59:29;1.17;;;0.70;;
63555;SDS011;49700;48.072;7.800;2023-05-10T14:01:57;1.30;;;0.90;;
63555;SDS011;49700;48.072;7.800;2023-05-10T14:04:23;1.10;;;0.80;;
63555;SDS011;49700;48.072;7.800;2023-05-10T14:06:49;0.80;;;0.70;;
63555;SDS011;49700;48.072;7.800;2023-05-10T14:09:14;2.10;;;1.00;;
63555;SDS011;49700;48.072;7.800;2023-05-10T14:11:39;1.00;;;0.73;;
63555;SDS011;49700;48.072;7.800;2023-05-10T14:14:08;0.90;;;0.70;;
63555;SDS011;49700;48.072;7.800;2023-05-10T14:16:34;1.50;;;0.90;;
63555;SDS011;49700;48.072;7.800;2023-05-10T14:18:59;0.70;;;0.70;;
63555;SDS011;49700;48.072;7.800;2023-05-10T14:21:24;0.80;;;0.70;;
63555;SDS011;49700;48.072;7.800;2023-05-10T14:23:50;0.80;;;0.60;;
63555;SDS011;49700;48.072;7.800;2023-05-10T14:26:15;0.93;;;0.67;;
63555;SDS011;49700;48.072;7.800;2023-05-10T14:28:41;0.60;;;0.60;;
63555;SDS011;49700;48.072;7.800;2023-05-10T14:31:06;0.70;;;0.60;;
63555;SDS011;49700;48.072;7.800;2023-05-10T14:33:32;1.40;;;0.80;;
63555;SDS011;49700;48.072;7.800;2023-05-10T14:35:57;0.80;;;0.70;;
63555;SDS011;49700;48.072;7.800;2023-05-10T14:38:23;2.33;;;0.90;;
63555;SDS011;49700;48.072;7.800;2023-05-10T14:40:49;2.30;;;0.70;;
63555;SDS011;49700;48.072;7.800;2023-05-10T14:43:14;1.00;;;0.70;;
63555;SDS011;49700;48.072;7.800;2023-05-10T14:45:40;0.80;;;0.70;;
63555;SDS011;49700;48.072;7.800;2023-05-10T14:48:05;0.70;;;0.70;;
63555;SDS011;49700;48.072;7.800;2023-05-10T14:50:30;2.70;;;0.70;;
63555;SDS011;49700;48.072;7.800;2023-05-10T14:52:57;1.00;;;0.63;;
63555;SDS011;49700;48.072;7.800;2023-05-10T14:55:23;0.70;;;0.70;;
63555;SDS011;49700;48.072;7.800;2023-05-10T14:57:48;0.90;;;0.80;;
63555;SDS011;49700;48.072;7.800;2023-05-10T15:00:15;1.50;;;0.70;;
63555;SDS011;49700;48.072;7.800;2023-05-10T15:02:41;0.70;;;0.60;;
63555;SDS011;49700;48.072;7.800;2023-05-10T15:05:07;0.90;;;0.70;;
63555;SDS011;49700;48.072;7.800;2023-05-10T15:07:32;1.37;;;0.80;;
63555;SDS011;49700;48.072;7.800;2023-05-10T15:09:57;0.70;;;0.60;;
63555;SDS011;49700;48.072;7.800;2023-05-10T15:12:23;1.43;;;0.90;;
63555;SDS011;49700;48.072;7.800;2023-05-10T15:14:48;0.70;;;0.70;;
63555;SDS011;49700;48.072;7.800;2023-05-10T15:17:14;0.97;;;0.80;;